sensor_id;sensor_type;location;lat;lon;timestamp;temperature;humidity
12413;DHT22;13877;18.896;-99.222;2022-12-18T00:02:15;21.70;42.70
12413;DHT22;13877;18.896;-99.222;2022-12-18T00:04:41;21.50;43.00
12413;DHT22;13877;18.896;-99.222;2022-12-18T00:07:09;21.30;43.90
12413;DHT22;13877;18.896;-99.222;2022-12-18T00:09:35;21.30;44.90
12413;DHT22;13877;18.896;-99.222;2022-12-18T00:12:02;21.20;44.40
12413;DHT22;13877;18.896;-99.222;2022-12-18T00:14:29;20.90;44.20
12413;DHT22;13877;18.896;-99.222;2022-12-18T00:16:56;20.80;44.00
12413;DHT22;13877;18.896;-99.222;2022-12-18T00:19:27;20.80;44.00
12413;DHT22;13877;18.896;-99.222;2022-12-18T00:21:54;20.80;44.10
12413;DHT22;13877;18.896;-99.222;2022-12-18T00:24:21;20.70;43.40
12413;DHT22;13877;18.896;-99.222;2022-12-18T00:26:48;20.70;43.30
12413;DHT22;13877;18.896;-99.222;2022-12-18T00:29:15;20.70;43.30
12413;DHT22;13877;18.896;-99.222;2022-12-18T00:31:43;20.70;43.30
12413;DHT22;13877;18.896;-99.222;2022-12-18T00:34:11;20.60;44.20
12413;DHT22;13877;18.896;-99.222;2022-12-18T00:36:40;20.60;45.70
12413;DHT22;13877;18.896;-99.222;2022-12-18T00:39:09;20.60;45.10
12413;DHT22;13877;18.896;-99.222;2022-12-18T00:41:36;20.60;45.40
12413;DHT22;13877;18.896;-99.222;2022-12-18T00:44:22;20.70;45.30
12413;DHT22;13877;18.896;-99.222;2022-12-18T00:46:50;20.90;45.40
12413;DHT22;13877;18.896;-99.222;2022-12-18T00:49:18;20.80;45.70
12413;DHT22;13877;18.896;-99.222;2022-12-18T00:51:45;20.80;45.90
12413;DHT22;13877;18.896;-99.222;2022-12-18T00:54:13;20.90;46.40
12413;DHT22;13877;18.896;-99.222;2022-12-18T00:56:40;20.90;47.30
12413;DHT22;13877;18.896;-99.222;2022-12-18T00:59:07;20.80;47.80
12413;DHT22;13877;18.896;-99.222;2022-12-18T01:01:34;20.70;48.50
12413;DHT22;13877;18.896;-99.222;2022-12-18T01:04:02;20.70;48.80
12413;DHT22;13877;18.896;-99.222;2022-12-18T01:06:29;20.70;48.90
12413;DHT22;13877;18.896;-99.222;2022-12-18T01:08:56;20.70;49.20
12413;DHT22;13877;18.896;-99.222;2022-12-18T01:11:23;20.60;49.40
12413;DHT22;13877;18.896;-99.222;2022-12-18T01:13:52;20.60;49.40
12413;DHT22;13877;18.896;-99.222;2022-12-18T01:16:21;20.60;49.30
12413;DHT22;13877;18.896;-99.222;2022-12-18T01:18:52;20.60;49.10
12413;DHT22;13877;18.896;-99.222;2022-12-18T01:21:20;20.60;49.10
12413;DHT22;13877;18.896;-99.222;2022-12-18T01:23:51;20.50;49.20
12413;DHT22;13877;18.896;-99.222;2022-12-18T01:26:19;20.50;49.20
12413;DHT22;13877;18.896;-99.222;2022-12-18T01:28:46;20.50;49.30
12413;DHT22;13877;18.896;-99.222;2022-12-18T01:31:23;20.40;49.40
12413;DHT22;13877;18.896;-99.222;2022-12-18T01:33:51;20.40;49.60
12413;DHT22;13877;18.896;-99.222;2022-12-18T01:36:29;20.30;49.50
12413;DHT22;13877;18.896;-99.222;2022-12-18T01:38:58;20.20;49.70
12413;DHT22;13877;18.896;-99.222;2022-12-18T01:41:27;20.20;49.50
12413;DHT22;13877;18.896;-99.222;2022-12-18T01:47:44;20.20;49.50
12413;DHT22;13877;18.896;-99.222;2022-12-18T01:50:23;20.10;49.40
12413;DHT22;13877;18.896;-99.222;2022-12-18T01:52:56;20.10;50.10
12413;DHT22;13877;18.896;-99.222;2022-12-18T01:55:28;20.10;49.40
12413;DHT22;13877;18.896;-99.222;2022-12-18T01:57:58;20.10;49.10
12413;DHT22;13877;18.896;-99.222;2022-12-18T02:00:26;20.10;49.30
12413;DHT22;13877;18.896;-99.222;2022-12-18T02:02:54;20.00;49.30
12413;DHT22;13877;18.896;-99.222;2022-12-18T02:05:40;20.00;49.30
12413;DHT22;13877;18.896;-99.222;2022-12-18T02:08:41;20.00;49.50
12413;DHT22;13877;18.896;-99.222;2022-12-18T02:17:03;19.90;49.30
12413;DHT22;13877;18.896;-99.222;2022-12-18T02:23:01;19.70;49.80
12413;DHT22;13877;18.896;-99.222;2022-12-18T02:28:22;19.50;49.30
12413;DHT22;13877;18.896;-99.222;2022-12-18T02:30:59;19.70;49.20
12413;DHT22;13877;18.896;-99.222;2022-12-18T02:33:30;19.80;49.30
12413;DHT22;13877;18.896;-99.222;2022-12-18T02:35:57;19.60;49.30
12413;DHT22;13877;18.896;-99.222;2022-12-18T02:38:28;19.60;49.10
12413;DHT22;13877;18.896;-99.222;2022-12-18T02:40:59;19.70;49.20
12413;DHT22;13877;18.896;-99.222;2022-12-18T02:43:27;19.70;48.90
12413;DHT22;13877;18.896;-99.222;2022-12-18T02:46:00;19.80;48.60
12413;DHT22;13877;18.896;-99.222;2022-12-18T02:48:33;19.80;48.30
12413;DHT22;13877;18.896;-99.222;2022-12-18T02:51:27;19.70;48.60
12413;DHT22;13877;18.896;-99.222;2022-12-18T02:54:15;19.60;48.60
12413;DHT22;13877;18.896;-99.222;2022-12-18T02:56:51;19.50;49.10
12413;DHT22;13877;18.896;-99.222;2022-12-18T02:59:44;19.40;49.00
12413;DHT22;13877;18.896;-99.222;2022-12-18T03:02:21;19.30;49.30
12413;DHT22;13877;18.896;-99.222;2022-12-18T03:05:05;19.20;50.00
12413;DHT22;13877;18.896;-99.222;2022-12-18T03:07:43;19.00;49.80
12413;DHT22;13877;18.896;-99.222;2022-12-18T03:10:16;19.10;50.00
12413;DHT22;13877;18.896;-99.222;2022-12-18T03:13:06;19.20;50.10
12413;DHT22;13877;18.896;-99.222;2022-12-18T03:15:41;19.20;49.90
12413;DHT22;13877;18.896;-99.222;2022-12-18T03:18:40;19.30;50.10
12413;DHT22;13877;18.896;-99.222;2022-12-18T03:21:06;19.20;50.00
12413;DHT22;13877;18.896;-99.222;2022-12-18T03:23:41;19.10;50.20
12413;DHT22;13877;18.896;-99.222;2022-12-18T03:26:18;19.00;50.50
12413;DHT22;13877;18.896;-99.222;2022-12-18T03:28:59;18.90;50.70
12413;DHT22;13877;18.896;-99.222;2022-12-18T03:31:29;18.90;50.80
12413;DHT22;13877;18.896;-99.222;2022-12-18T03:34:09;18.90;50.80
12413;DHT22;13877;18.896;-99.222;2022-12-18T03:36:44;19.00;50.90
12413;DHT22;13877;18.896;-99.222;2022-12-18T03:39:12;19.00;50.80
12413;DHT22;13877;18.896;-99.222;2022-12-18T03:41:47;18.90;50.90
12413;DHT22;13877;18.896;-99.222;2022-12-18T03:44:47;18.90;51.00
12413;DHT22;13877;18.896;-99.222;2022-12-18T03:47:27;18.80;51.00
12413;DHT22;13877;18.896;-99.222;2022-12-18T03:52:58;18.80;51.30
12413;DHT22;13877;18.896;-99.222;2022-12-18T03:55:29;18.70;51.50
12413;DHT22;13877;18.896;-99.222;2022-12-18T03:58:03;18.80;51.50
12413;DHT22;13877;18.896;-99.222;2022-12-18T04:00:44;18.80;51.40
12413;DHT22;13877;18.896;-99.222;2022-12-18T04:03:12;18.80;51.10
12413;DHT22;13877;18.896;-99.222;2022-12-18T04:05:48;18.80;51.20
12413;DHT22;13877;18.896;-99.222;2022-12-18T04:08:20;18.80;51.20
12413;DHT22;13877;18.896;-99.222;2022-12-18T04:10:56;18.90;51.10
12413;DHT22;13877;18.896;-99.222;2022-12-18T04:13:28;18.80;51.00
12413;DHT22;13877;18.896;-99.222;2022-12-18T04:15:57;18.80;50.90
12413;DHT22;13877;18.896;-99.222;2022-12-18T04:18:24;18.90;51.00
12413;DHT22;13877;18.896;-99.222;2022-12-18T04:20:52;18.80;50.90
12413;DHT22;13877;18.896;-99.222;2022-12-18T04:23:19;18.80;51.10
12413;DHT22;13877;18.896;-99.222;2022-12-18T04:25:50;18.80;51.10
12413;DHT22;13877;18.896;-99.222;2022-12-18T04:28:26;18.80;51.20
12413;DHT22;13877;18.896;-99.222;2022-12-18T04:30:53;18.80;51.20
12413;DHT22;13877;18.896;-99.222;2022-12-18T04:33:21;18.70;51.10
12413;DHT22;13877;18.896;-99.222;2022-12-18T04:35:48;18.70;51.20
12413;DHT22;13877;18.896;-99.222;2022-12-18T04:38:15;18.70;51.20
12413;DHT22;13877;18.896;-99.222;2022-12-18T04:40:44;18.60;51.10
12413;DHT22;13877;18.896;-99.222;2022-12-18T04:43:20;18.60;51.00
12413;DHT22;13877;18.896;-99.222;2022-12-18T04:45:47;18.60;50.80
12413;DHT22;13877;18.896;-99.222;2022-12-18T04:48:14;18.70;50.90
12413;DHT22;13877;18.896;-99.222;2022-12-18T04:50:41;18.70;50.60
12413;DHT22;13877;18.896;-99.222;2022-12-18T04:53:07;18.70;50.50
12413;DHT22;13877;18.896;-99.222;2022-12-18T04:55:35;18.60;50.30
12413;DHT22;13877;18.896;-99.222;2022-12-18T04:58:01;18.70;50.60
12413;DHT22;13877;18.896;-99.222;2022-12-18T05:00:28;18.60;50.50
12413;DHT22;13877;18.896;-99.222;2022-12-18T05:02:55;18.60;50.40
12413;DHT22;13877;18.896;-99.222;2022-12-18T05:05:22;18.60;50.60
12413;DHT22;13877;18.896;-99.222;2022-12-18T05:07:49;18.60;50.30
12413;DHT22;13877;18.896;-99.222;2022-12-18T05:10:16;18.60;50.30
12413;DHT22;13877;18.896;-99.222;2022-12-18T05:12:43;18.60;50.40
12413;DHT22;13877;18.896;-99.222;2022-12-18T05:15:30;18.50;50.40
12413;DHT22;13877;18.896;-99.222;2022-12-18T05:17:58;18.50;50.40
12413;DHT22;13877;18.896;-99.222;2022-12-18T05:20:26;18.50;50.20
12413;DHT22;13877;18.896;-99.222;2022-12-18T05:22:54;18.50;50.30
12413;DHT22;13877;18.896;-99.222;2022-12-18T05:25:22;18.50;50.30
12413;DHT22;13877;18.896;-99.222;2022-12-18T05:27:49;18.50;50.20
12413;DHT22;13877;18.896;-99.222;2022-12-18T05:30:16;18.50;50.10
12413;DHT22;13877;18.896;-99.222;2022-12-18T05:32:43;18.50;50.00
12413;DHT22;13877;18.896;-99.222;2022-12-18T05:35:10;18.50;49.70
12413;DHT22;13877;18.896;-99.222;2022-12-18T05:37:38;18.50;49.70
12413;DHT22;13877;18.896;-99.222;2022-12-18T05:40:05;18.50;49.60
12413;DHT22;13877;18.896;-99.222;2022-12-18T05:42:32;18.50;49.70
12413;DHT22;13877;18.896;-99.222;2022-12-18T05:45:00;18.50;49.60
12413;DHT22;13877;18.896;-99.222;2022-12-18T05:47:27;18.40;49.70
12413;DHT22;13877;18.896;-99.222;2022-12-18T05:49:55;18.40;49.60
12413;DHT22;13877;18.896;-99.222;2022-12-18T05:52:23;18.40;49.50
12413;DHT22;13877;18.896;-99.222;2022-12-18T05:54:50;18.40;49.50
12413;DHT22;13877;18.896;-99.222;2022-12-18T05:57:17;18.30;49.60
12413;DHT22;13877;18.896;-99.222;2022-12-18T05:59:43;18.30;49.50
12413;DHT22;13877;18.896;-99.222;2022-12-18T06:02:11;18.40;49.40
12413;DHT22;13877;18.896;-99.222;2022-12-18T06:04:38;18.40;49.30
12413;DHT22;13877;18.896;-99.222;2022-12-18T06:07:05;18.40;49.30
12413;DHT22;13877;18.896;-99.222;2022-12-18T06:09:32;18.40;49.10
12413;DHT22;13877;18.896;-99.222;2022-12-18T06:11:58;18.40;49.30
12413;DHT22;13877;18.896;-99.222;2022-12-18T06:14:25;18.30;49.30
12413;DHT22;13877;18.896;-99.222;2022-12-18T06:16:52;18.20;49.70
12413;DHT22;13877;18.896;-99.222;2022-12-18T06:19:19;18.30;49.30
12413;DHT22;13877;18.896;-99.222;2022-12-18T06:21:46;18.30;49.30
12413;DHT22;13877;18.896;-99.222;2022-12-18T06:24:13;18.10;49.90
12413;DHT22;13877;18.896;-99.222;2022-12-18T06:26:40;17.90;50.50
12413;DHT22;13877;18.896;-99.222;2022-12-18T06:29:07;17.80;50.20
12413;DHT22;13877;18.896;-99.222;2022-12-18T06:31:34;17.90;50.00
12413;DHT22;13877;18.896;-99.222;2022-12-18T06:34:04;18.00;49.40
12413;DHT22;13877;18.896;-99.222;2022-12-18T06:36:31;18.00;49.20
12413;DHT22;13877;18.896;-99.222;2022-12-18T06:38:58;18.20;48.80
12413;DHT22;13877;18.896;-99.222;2022-12-18T06:41:26;18.20;48.50
12413;DHT22;13877;18.896;-99.222;2022-12-18T06:43:52;18.20;48.40
12413;DHT22;13877;18.896;-99.222;2022-12-18T06:46:20;18.20;48.30
12413;DHT22;13877;18.896;-99.222;2022-12-18T06:48:48;18.20;48.30
12413;DHT22;13877;18.896;-99.222;2022-12-18T06:51:18;18.20;48.40
12413;DHT22;13877;18.896;-99.222;2022-12-18T06:53:45;18.10;48.80
12413;DHT22;13877;18.896;-99.222;2022-12-18T06:56:12;18.00;48.80
12413;DHT22;13877;18.896;-99.222;2022-12-18T06:58:39;17.90;49.00
12413;DHT22;13877;18.896;-99.222;2022-12-18T07:01:09;17.80;49.00
12413;DHT22;13877;18.896;-99.222;2022-12-18T07:03:38;17.70;49.60
12413;DHT22;13877;18.896;-99.222;2022-12-18T07:06:05;18.00;48.40
12413;DHT22;13877;18.896;-99.222;2022-12-18T07:08:32;18.00;48.40
12413;DHT22;13877;18.896;-99.222;2022-12-18T07:10:59;17.90;49.10
12413;DHT22;13877;18.896;-99.222;2022-12-18T07:13:29;17.80;49.00
12413;DHT22;13877;18.896;-99.222;2022-12-18T07:16:02;17.70;49.20
12413;DHT22;13877;18.896;-99.222;2022-12-18T07:18:29;17.60;49.30
12413;DHT22;13877;18.896;-99.222;2022-12-18T07:20:56;17.60;49.30
12413;DHT22;13877;18.896;-99.222;2022-12-18T07:23:23;17.60;49.20
12413;DHT22;13877;18.896;-99.222;2022-12-18T07:25:50;17.60;48.70
12413;DHT22;13877;18.896;-99.222;2022-12-18T07:28:17;17.70;48.70
12413;DHT22;13877;18.896;-99.222;2022-12-18T07:30:43;17.80;48.40
12413;DHT22;13877;18.896;-99.222;2022-12-18T07:33:10;17.80;48.20
12413;DHT22;13877;18.896;-99.222;2022-12-18T07:35:37;17.90;47.90
12413;DHT22;13877;18.896;-99.222;2022-12-18T07:38:04;18.00;47.70
12413;DHT22;13877;18.896;-99.222;2022-12-18T07:40:31;18.00;47.50
12413;DHT22;13877;18.896;-99.222;2022-12-18T07:42:58;18.00;47.60
12413;DHT22;13877;18.896;-99.222;2022-12-18T07:45:25;18.00;47.60
12413;DHT22;13877;18.896;-99.222;2022-12-18T07:47:51;18.10;47.70
12413;DHT22;13877;18.896;-99.222;2022-12-18T07:50:18;18.10;48.30
12413;DHT22;13877;18.896;-99.222;2022-12-18T07:52:45;18.00;48.90
12413;DHT22;13877;18.896;-99.222;2022-12-18T07:55:12;18.00;49.00
12413;DHT22;13877;18.896;-99.222;2022-12-18T07:57:40;18.20;48.70
12413;DHT22;13877;18.896;-99.222;2022-12-18T08:00:07;18.20;48.30
12413;DHT22;13877;18.896;-99.222;2022-12-18T08:02:38;18.20;48.40
12413;DHT22;13877;18.896;-99.222;2022-12-18T08:05:05;18.20;48.30
12413;DHT22;13877;18.896;-99.222;2022-12-18T08:07:32;18.10;48.80
12413;DHT22;13877;18.896;-99.222;2022-12-18T08:09:59;18.10;48.80
12413;DHT22;13877;18.896;-99.222;2022-12-18T08:12:26;18.00;49.00
12413;DHT22;13877;18.896;-99.222;2022-12-18T08:14:53;17.90;49.30
12413;DHT22;13877;18.896;-99.222;2022-12-18T08:17:20;17.90;49.50
12413;DHT22;13877;18.896;-99.222;2022-12-18T08:19:47;17.80;49.80
12413;DHT22;13877;18.896;-99.222;2022-12-18T08:22:14;17.70;50.00
12413;DHT22;13877;18.896;-99.222;2022-12-18T08:24:43;17.80;50.00
12413;DHT22;13877;18.896;-99.222;2022-12-18T08:27:10;17.80;50.10
12413;DHT22;13877;18.896;-99.222;2022-12-18T08:29:37;17.80;49.90
12413;DHT22;13877;18.896;-99.222;2022-12-18T08:32:04;17.60;50.30
12413;DHT22;13877;18.896;-99.222;2022-12-18T08:34:31;17.50;50.80
12413;DHT22;13877;18.896;-99.222;2022-12-18T08:36:58;17.50;50.60
12413;DHT22;13877;18.896;-99.222;2022-12-18T08:39:25;17.40;50.80
12413;DHT22;13877;18.896;-99.222;2022-12-18T08:41:52;17.20;51.30
12413;DHT22;13877;18.896;-99.222;2022-12-18T08:44:37;17.00;52.40
12413;DHT22;13877;18.896;-99.222;2022-12-18T08:47:07;17.00;52.10
12413;DHT22;13877;18.896;-99.222;2022-12-18T08:49:35;16.80;52.70
12413;DHT22;13877;18.896;-99.222;2022-12-18T08:52:02;16.60;54.30
12413;DHT22;13877;18.896;-99.222;2022-12-18T08:54:29;16.50;54.60
12413;DHT22;13877;18.896;-99.222;2022-12-18T08:56:56;16.20;55.20
12413;DHT22;13877;18.896;-99.222;2022-12-18T08:59:24;16.30;54.10
12413;DHT22;13877;18.896;-99.222;2022-12-18T09:01:53;16.30;53.90
12413;DHT22;13877;18.896;-99.222;2022-12-18T09:04:20;16.10;54.70
12413;DHT22;13877;18.896;-99.222;2022-12-18T09:06:46;16.10;53.20
12413;DHT22;13877;18.896;-99.222;2022-12-18T09:09:13;15.90;54.80
12413;DHT22;13877;18.896;-99.222;2022-12-18T09:11:40;15.80;55.70
12413;DHT22;13877;18.896;-99.222;2022-12-18T09:14:08;15.60;55.50
12413;DHT22;13877;18.896;-99.222;2022-12-18T09:16:35;15.30;56.10
12413;DHT22;13877;18.896;-99.222;2022-12-18T09:19:04;15.20;56.40
12413;DHT22;13877;18.896;-99.222;2022-12-18T09:21:33;15.30;55.80
12413;DHT22;13877;18.896;-99.222;2022-12-18T09:24:00;15.30;56.40
12413;DHT22;13877;18.896;-99.222;2022-12-18T09:26:27;15.50;55.50
12413;DHT22;13877;18.896;-99.222;2022-12-18T09:28:54;15.60;54.50
12413;DHT22;13877;18.896;-99.222;2022-12-18T09:31:23;15.80;55.10
12413;DHT22;13877;18.896;-99.222;2022-12-18T09:33:51;15.80;54.80
12413;DHT22;13877;18.896;-99.222;2022-12-18T09:36:18;15.80;54.70
12413;DHT22;13877;18.896;-99.222;2022-12-18T09:38:46;15.90;55.10
12413;DHT22;13877;18.896;-99.222;2022-12-18T09:44:02;15.70;55.40
12413;DHT22;13877;18.896;-99.222;2022-12-18T09:46:33;15.70;56.00
12413;DHT22;13877;18.896;-99.222;2022-12-18T09:49:05;15.60;56.00
12413;DHT22;13877;18.896;-99.222;2022-12-18T09:52:02;15.50;56.40
12413;DHT22;13877;18.896;-99.222;2022-12-18T09:54:38;15.50;56.50
12413;DHT22;13877;18.896;-99.222;2022-12-18T09:57:06;15.50;56.60
12413;DHT22;13877;18.896;-99.222;2022-12-18T09:59:37;15.60;56.30
12413;DHT22;13877;18.896;-99.222;2022-12-18T10:02:21;15.70;55.90
12413;DHT22;13877;18.896;-99.222;2022-12-18T10:05:16;15.90;55.00
12413;DHT22;13877;18.896;-99.222;2022-12-18T10:10:44;16.20;52.90
12413;DHT22;13877;18.896;-99.222;2022-12-18T10:18:59;16.30;52.30
12413;DHT22;13877;18.896;-99.222;2022-12-18T10:24:33;16.10;53.20
12413;DHT22;13877;18.896;-99.222;2022-12-18T10:27:15;15.90;53.60
12413;DHT22;13877;18.896;-99.222;2022-12-18T10:29:46;15.80;54.30
12413;DHT22;13877;18.896;-99.222;2022-12-18T10:32:19;15.60;55.00
12413;DHT22;13877;18.896;-99.222;2022-12-18T10:34:51;15.60;55.20
12413;DHT22;13877;18.896;-99.222;2022-12-18T10:37:21;15.70;55.00
12413;DHT22;13877;18.896;-99.222;2022-12-18T10:42:38;15.80;54.60
12413;DHT22;13877;18.896;-99.222;2022-12-18T10:45:12;15.80;54.60
12413;DHT22;13877;18.896;-99.222;2022-12-18T10:47:50;15.90;54.70
12413;DHT22;13877;18.896;-99.222;2022-12-18T10:52:59;15.80;54.90
12413;DHT22;13877;18.896;-99.222;2022-12-18T10:55:35;15.80;54.70
12413;DHT22;13877;18.896;-99.222;2022-12-18T10:58:23;15.70;54.80
12413;DHT22;13877;18.896;-99.222;2022-12-18T11:06:07;15.70;54.30
12413;DHT22;13877;18.896;-99.222;2022-12-18T11:08:34;15.70;54.20
12413;DHT22;13877;18.896;-99.222;2022-12-18T11:11:02;15.70;54.10
12413;DHT22;13877;18.896;-99.222;2022-12-18T11:13:31;15.80;53.70
12413;DHT22;13877;18.896;-99.222;2022-12-18T11:15:58;15.90;53.40
12413;DHT22;13877;18.896;-99.222;2022-12-18T11:18:34;15.80;53.40
12413;DHT22;13877;18.896;-99.222;2022-12-18T11:21:09;15.70;53.40
12413;DHT22;13877;18.896;-99.222;2022-12-18T11:23:51;15.90;52.90
12413;DHT22;13877;18.896;-99.222;2022-12-18T11:26:19;16.00;52.50
12413;DHT22;13877;18.896;-99.222;2022-12-18T11:29:16;15.90;52.40
12413;DHT22;13877;18.896;-99.222;2022-12-18T11:31:43;15.90;52.20
12413;DHT22;13877;18.896;-99.222;2022-12-18T11:34:27;15.80;52.40
12413;DHT22;13877;18.896;-99.222;2022-12-18T11:36:57;15.80;52.50
12413;DHT22;13877;18.896;-99.222;2022-12-18T11:39:57;15.80;52.30
12413;DHT22;13877;18.896;-99.222;2022-12-18T11:42:48;15.90;52.00
12413;DHT22;13877;18.896;-99.222;2022-12-18T11:45:31;15.90;52.00
12413;DHT22;13877;18.896;-99.222;2022-12-18T11:48:24;15.80;51.90
12413;DHT22;13877;18.896;-99.222;2022-12-18T11:50:58;15.90;51.80
12413;DHT22;13877;18.896;-99.222;2022-12-18T11:53:27;15.80;51.80
12413;DHT22;13877;18.896;-99.222;2022-12-18T11:56:26;15.80;51.80
12413;DHT22;13877;18.896;-99.222;2022-12-18T11:59:13;15.70;51.80
12413;DHT22;13877;18.896;-99.222;2022-12-18T12:01:55;15.70;52.10
12413;DHT22;13877;18.896;-99.222;2022-12-18T12:07:18;15.70;52.00
12413;DHT22;13877;18.896;-99.222;2022-12-18T12:09:57;15.60;52.10
12413;DHT22;13877;18.896;-99.222;2022-12-18T12:21:06;15.70;51.50
12413;DHT22;13877;18.896;-99.222;2022-12-18T12:26:36;15.60;51.80
12413;DHT22;13877;18.896;-99.222;2022-12-18T12:32:00;15.70;51.70
12413;DHT22;13877;18.896;-99.222;2022-12-18T12:34:48;15.70;51.50
12413;DHT22;13877;18.896;-99.222;2022-12-18T12:40:21;15.80;51.20
12413;DHT22;13877;18.896;-99.222;2022-12-18T12:46:04;15.90;51.00
12413;DHT22;13877;18.896;-99.222;2022-12-18T12:51:36;15.70;51.70
12413;DHT22;13877;18.896;-99.222;2022-12-18T12:54:11;15.80;51.50
12413;DHT22;13877;18.896;-99.222;2022-12-18T12:56:50;15.80;51.40
12413;DHT22;13877;18.896;-99.222;2022-12-18T13:05:05;15.70;51.90
12413;DHT22;13877;18.896;-99.222;2022-12-18T13:07:50;15.60;52.40
12413;DHT22;13877;18.896;-99.222;2022-12-18T13:12:55;15.50;53.00
12413;DHT22;13877;18.896;-99.222;2022-12-18T13:15:41;15.50;53.60
12413;DHT22;13877;18.896;-99.222;2022-12-18T13:20:39;15.70;53.50
12413;DHT22;13877;18.896;-99.222;2022-12-18T13:23:27;15.70;53.50
12413;DHT22;13877;18.896;-99.222;2022-12-18T13:25:55;15.80;53.70
12413;DHT22;13877;18.896;-99.222;2022-12-18T13:34:17;15.60;54.50
12413;DHT22;13877;18.896;-99.222;2022-12-18T13:36:45;15.60;54.80
12413;DHT22;13877;18.896;-99.222;2022-12-18T13:41:48;15.80;54.60
12413;DHT22;13877;18.896;-99.222;2022-12-18T13:44:34;16.10;54.10
12413;DHT22;13877;18.896;-99.222;2022-12-18T13:47:03;16.40;53.30
12413;DHT22;13877;18.896;-99.222;2022-12-18T13:49:39;16.50;52.90
12413;DHT22;13877;18.896;-99.222;2022-12-18T13:52:27;16.70;52.90
12413;DHT22;13877;18.896;-99.222;2022-12-18T13:54:59;16.70;52.80
12413;DHT22;13877;18.896;-99.222;2022-12-18T13:57:30;16.90;53.00
12413;DHT22;13877;18.896;-99.222;2022-12-18T13:59:58;17.10;53.00
12413;DHT22;13877;18.896;-99.222;2022-12-18T14:02:38;17.40;52.50
12413;DHT22;13877;18.896;-99.222;2022-12-18T14:05:20;17.80;52.10
12413;DHT22;13877;18.896;-99.222;2022-12-18T14:07:48;18.00;52.10
12413;DHT22;13877;18.896;-99.222;2022-12-18T14:10:16;18.20;52.90
12413;DHT22;13877;18.896;-99.222;2022-12-18T14:12:53;18.40;52.70
12413;DHT22;13877;18.896;-99.222;2022-12-18T14:17:51;19.10;51.40
12413;DHT22;13877;18.896;-99.222;2022-12-18T14:20:19;19.50;51.10
12413;DHT22;13877;18.896;-99.222;2022-12-18T14:22:47;19.80;50.20
12413;DHT22;13877;18.896;-99.222;2022-12-18T14:30:42;19.90;50.00
12413;DHT22;13877;18.896;-99.222;2022-12-18T14:33:10;20.30;50.00
12413;DHT22;13877;18.896;-99.222;2022-12-18T14:35:59;20.70;49.60
12413;DHT22;13877;18.896;-99.222;2022-12-18T14:38:40;20.90;48.90
12413;DHT22;13877;18.896;-99.222;2022-12-18T14:41:15;21.00;49.00
12413;DHT22;13877;18.896;-99.222;2022-12-18T14:43:45;21.00;48.50
12413;DHT22;13877;18.896;-99.222;2022-12-18T14:49:51;21.50;48.40
12413;DHT22;13877;18.896;-99.222;2022-12-18T14:51:56;21.50;47.70
12413;DHT22;13877;18.896;-99.222;2022-12-18T14:54:24;21.60;47.80
12413;DHT22;13877;18.896;-99.222;2022-12-18T14:59:43;22.10;46.70
12413;DHT22;13877;18.896;-99.222;2022-12-18T15:04:47;21.90;47.60
12413;DHT22;13877;18.896;-99.222;2022-12-18T15:12:37;22.10;46.60
12413;DHT22;13877;18.896;-99.222;2022-12-18T15:15:05;22.20;47.00
12413;DHT22;13877;18.896;-99.222;2022-12-18T15:17:32;22.50;46.60
12413;DHT22;13877;18.896;-99.222;2022-12-18T15:20:02;22.60;45.90
12413;DHT22;13877;18.896;-99.222;2022-12-18T15:22:33;22.40;46.40
12413;DHT22;13877;18.896;-99.222;2022-12-18T15:25:02;22.30;46.90
12413;DHT22;13877;18.896;-99.222;2022-12-18T15:27:36;22.30;47.10
12413;DHT22;13877;18.896;-99.222;2022-12-18T15:32:38;22.80;45.80
12413;DHT22;13877;18.896;-99.222;2022-12-18T15:37:39;22.90;45.50
12413;DHT22;13877;18.896;-99.222;2022-12-18T15:40:12;22.80;45.60
12413;DHT22;13877;18.896;-99.222;2022-12-18T15:42:39;23.10;45.70
12413;DHT22;13877;18.896;-99.222;2022-12-18T15:45:24;22.80;46.20
12413;DHT22;13877;18.896;-99.222;2022-12-18T15:47:51;23.30;45.50
12413;DHT22;13877;18.896;-99.222;2022-12-18T15:50:18;23.10;45.80
12413;DHT22;13877;18.896;-99.222;2022-12-18T15:52:47;23.20;45.40
12413;DHT22;13877;18.896;-99.222;2022-12-18T15:55:20;23.00;45.70
12413;DHT22;13877;18.896;-99.222;2022-12-18T15:58:06;23.00;46.00
12413;DHT22;13877;18.896;-99.222;2022-12-18T16:00:35;23.10;46.20
12413;DHT22;13877;18.896;-99.222;2022-12-18T16:03:04;23.30;45.20
12413;DHT22;13877;18.896;-99.222;2022-12-18T16:05:31;23.00;45.90
12413;DHT22;13877;18.896;-99.222;2022-12-18T16:07:58;23.00;46.00
12413;DHT22;13877;18.896;-99.222;2022-12-18T16:10:26;23.20;46.00
12413;DHT22;13877;18.896;-99.222;2022-12-18T16:12:53;23.40;45.30
12413;DHT22;13877;18.896;-99.222;2022-12-18T16:15:20;23.40;45.30
12413;DHT22;13877;18.896;-99.222;2022-12-18T16:17:47;23.60;44.80
12413;DHT22;13877;18.896;-99.222;2022-12-18T16:20:20;24.00;45.50
12413;DHT22;13877;18.896;-99.222;2022-12-18T16:22:47;24.10;44.40
12413;DHT22;13877;18.896;-99.222;2022-12-18T16:27:49;24.40;43.80
12413;DHT22;13877;18.896;-99.222;2022-12-18T16:30:18;24.70;43.50
12413;DHT22;13877;18.896;-99.222;2022-12-18T16:32:45;24.90;42.20
12413;DHT22;13877;18.896;-99.222;2022-12-18T16:35:14;25.00;41.80
12413;DHT22;13877;18.896;-99.222;2022-12-18T16:37:42;25.10;43.00
12413;DHT22;13877;18.896;-99.222;2022-12-18T16:40:12;25.30;41.70
12413;DHT22;13877;18.896;-99.222;2022-12-18T16:42:41;25.10;41.60
12413;DHT22;13877;18.896;-99.222;2022-12-18T16:45:14;25.20;41.80
12413;DHT22;13877;18.896;-99.222;2022-12-18T16:47:41;24.50;43.20
12413;DHT22;13877;18.896;-99.222;2022-12-18T16:50:09;24.20;43.40
12413;DHT22;13877;18.896;-99.222;2022-12-18T16:52:36;24.50;43.10
12413;DHT22;13877;18.896;-99.222;2022-12-18T16:55:04;24.40;42.80
12413;DHT22;13877;18.896;-99.222;2022-12-18T16:57:31;24.40;42.90
12413;DHT22;13877;18.896;-99.222;2022-12-18T16:59:58;24.80;42.40
12413;DHT22;13877;18.896;-99.222;2022-12-18T17:02:26;24.70;41.60
12413;DHT22;13877;18.896;-99.222;2022-12-18T17:04:54;24.80;41.70
12413;DHT22;13877;18.896;-99.222;2022-12-18T17:07:22;25.20;41.20
12413;DHT22;13877;18.896;-99.222;2022-12-18T17:09:49;25.10;41.30
12413;DHT22;13877;18.896;-99.222;2022-12-18T17:12:17;24.00;43.50
12413;DHT22;13877;18.896;-99.222;2022-12-18T17:14:43;24.60;43.30
12413;DHT22;13877;18.896;-99.222;2022-12-18T17:17:11;24.40;42.90
12413;DHT22;13877;18.896;-99.222;2022-12-18T17:19:37;24.40;43.20
12413;DHT22;13877;18.896;-99.222;2022-12-18T17:22:04;24.90;42.20
12413;DHT22;13877;18.896;-99.222;2022-12-18T17:24:33;24.80;41.60
12413;DHT22;13877;18.896;-99.222;2022-12-18T17:27:00;24.50;42.30